Time;durP1;ratioP1;P1;durP2;ratioP2;P2;SDS_P1;SDS_P2;PMS_P1;PMS_P2;Temp;Humidity;BMP_temperature;BMP_pressure;BME280_temperature;BME280_humidity;BME280_pressure;Samples;Min_cycle;Max_cycle;Signal;HPM_P1;HPM_P2
2020/12/02 00:00:22;;;;;;;56.97;29.00;;;5.20;99.90;;;;;;4994191;28;20026;-80
2020/12/02 00:03:02;;;;;;;49.63;29.67;;;5.20;99.90;;;;;;4994664;28;20515;-80
2020/12/02 00:05:30;;;;;;;58.58;30.58;;;5.20;99.90;;;;;;5024091;28;20033;-80
2020/12/02 00:08:09;;;;;;;54.90;30.13;;;5.20;99.90;;;;;;5031917;28;20029;-79
2020/12/02 00:10:35;;;;;;;55.70;30.42;;;5.20;99.90;;;;;;5031243;28;20405;-80
2020/12/02 00:13:02;;;;;;;60.10;31.13;;;5.10;99.90;;;;;;5031759;28;20025;-79
2020/12/02 00:15:28;;;;;;;61.15;29.15;;;5.10;99.90;;;;;;5021825;28;20041;-79
2020/12/02 00:17:55;;;;;;;53.92;28.48;;;5.10;99.90;;;;;;5011686;28;20018;-80
2020/12/02 00:20:21;;;;;;;51.92;27.40;;;5.10;99.90;;;;;;5011925;28;20045;-80
2020/12/02 00:22:46;;;;;;;59.72;29.40;;;5.10;99.90;;;;;;4994360;28;20482;-80
2020/12/02 00:25:12;;;;;;;53.45;28.80;;;5.10;99.90;;;;;;5006513;28;20083;-80
2020/12/02 00:27:37;;;;;;;54.65;28.40;;;5.10;99.90;;;;;;5031614;28;20083;-79
2020/12/02 00:30:10;;;;;;;58.45;30.45;;;5.10;99.90;;;;;;5031743;28;20112;-79
2020/12/02 00:32:39;;;;;;;59.75;29.52;;;5.10;99.90;;;;;;5013832;28;20033;-79
2020/12/02 00:35:07;;;;;;;62.55;30.63;;;5.10;99.90;;;;;;5021778;28;20025;-79
2020/12/02 00:37:32;;;;;;;59.70;30.88;;;5.10;99.90;;;;;;5011664;28;20103;-79
2020/12/02 00:39:58;;;;;;;58.88;33.15;;;5.10;99.90;;;;;;5011429;28;20497;-80
2020/12/02 00:42:24;;;;;;;63.03;33.03;;;5.10;99.90;;;;;;5011612;28;20410;-79
2020/12/02 00:44:50;;;;;;;70.28;33.90;;;5.20;99.90;;;;;;4997771;28;20482;-80
2020/12/02 00:47:20;;;;;;;60.28;31.85;;;5.20;99.90;;;;;;5013409;28;20409;-79
2020/12/02 00:49:56;;;;;;;56.50;30.80;;;5.20;99.90;;;;;;5013469;28;20123;-79
2020/12/02 00:52:23;;;;;;;62.80;30.35;;;5.20;99.90;;;;;;5030694;28;20037;-79
2020/12/02 00:54:49;;;;;;;67.55;35.38;;;5.20;99.90;;;;;;5003404;28;20037;-80
2020/12/02 00:57:22;;;;;;;79.40;37.15;;;5.20;99.90;;;;;;5011374;28;20022;-80
2020/12/02 00:59:54;;;;;;;65.80;33.53;;;5.20;99.90;;;;;;4993143;28;20120;-80
2020/12/02 01:02:34;;;;;;;66.95;33.70;;;5.10;99.90;;;;;;4993442;28;20037;-80
2020/12/02 01:05:00;;;;;;;59.85;31.65;;;5.20;99.90;;;;;;5001637;28;20048;-80
2020/12/02 01:07:28;;;;;;;63.30;33.05;;;5.20;99.90;;;;;;5013208;28;20040;-80
2020/12/02 01:09:55;;;;;;;67.47;31.88;;;5.20;99.90;;;;;;5030107;28;20038;-80
2020/12/02 01:12:20;;;;;;;56.42;30.52;;;5.20;99.90;;;;;;5013193;28;20071;-80
2020/12/02 01:14:48;;;;;;;61.33;33.17;;;5.20;99.90;;;;;;5008575;28;20030;-79
2020/12/02 01:17:14;;;;;;;59.58;31.92;;;5.20;99.90;;;;;;4993444;28;20426;-80
2020/12/02 01:19:39;;;;;;;59.70;30.90;;;5.20;99.90;;;;;;4993367;28;20064;-79
2020/12/02 01:22:21;;;;;;;60.85;31.52;;;5.20;99.90;;;;;;5010727;28;20022;-79
2020/12/02 01:25:04;;;;;;;54.20;30.15;;;5.20;99.90;;;;;;5020624;28;20032;-79
2020/12/02 01:27:35;;;;;;;60.55;30.35;;;5.20;99.90;;;;;;5013016;28;20075;-80
2020/12/02 01:30:01;;;;;;;61.55;31.35;;;5.20;99.90;;;;;;5012873;28;20030;-80
2020/12/02 01:32:26;;;;;;;64.53;33.83;;;5.10;99.90;;;;;;5030680;28;20028;-79
2020/12/02 01:34:54;;;;;;;67.57;32.15;;;5.10;99.90;;;;;;5005054;28;20026;-79
2020/12/02 01:37:35;;;;;;;62.53;32.10;;;5.10;99.90;;;;;;5010859;28;20060;-80
2020/12/02 01:40:19;;;;;;;61.90;31.52;;;5.10;99.90;;;;;;5010690;28;20026;-80
2020/12/02 01:42:49;;;;;;;56.65;31.70;;;5.10;99.90;;;;;;5010879;28;20034;-80
2020/12/02 01:45:24;;;;;;;57.97;30.05;;;5.10;99.90;;;;;;5018353;28;20037;-79
2020/12/02 01:47:58;;;;;;;66.55;31.42;;;5.10;99.90;;;;;;5030579;28;20025;-80
2020/12/02 01:50:35;;;;;;;64.25;33.42;;;5.10;99.90;;;;;;5030490;28;20122;-79
2020/12/02 01:53:06;;;;;;;64.57;33.53;;;5.10;99.90;;;;;;5030376;28;20116;-80
2020/12/02 01:55:42;;;;;;;58.70;32.20;;;5.10;99.90;;;;;;5014488;28;20498;-79
2020/12/02 01:58:17;;;;;;;53.95;32.20;;;5.10;99.90;;;;;;5010725;28;20108;-79
2020/12/02 02:00:51;;;;;;;59.85;30.73;;;5.10;99.90;;;;;;5011046;28;20029;-79
2020/12/02 02:03:18;;;;;;;65.50;33.00;;;5.10;99.90;;;;;;5010613;28;20034;-79
2020/12/02 02:05:58;;;;;;;62.25;35.22;;;5.10;99.90;;;;;;5024296;28;20060;-80
2020/12/02 02:08:27;;;;;;;64.45;34.53;;;5.10;99.90;;;;;;5012669;28;20030;-79
2020/12/02 02:10:55;;;;;;;61.95;33.38;;;5.10;99.90;;;;;;5031631;28;20034;-80
2020/12/02 02:13:58;;;;;;;72.47;35.45;;;5.10;99.90;;;;;;5033688;28;20059;-79
2020/12/02 02:16:31;;;;;;;68.38;36.70;;;5.00;99.90;;;;;;4998961;28;20529;-80
2020/12/02 02:18:57;;;;;;;71.35;38.03;;;5.10;99.90;;;;;;5014129;28;20037;-80
2020/12/02 02:21:26;;;;;;;64.82;34.40;;;5.00;99.90;;;;;;4996494;28;20025;-79
2020/12/02 02:23:52;;;;;;;64.07;33.38;;;5.00;99.90;;;;;;5015011;28;20057;-80
2020/12/02 02:26:39;;;;;;;65.20;34.83;;;5.00;99.90;;;;;;5034167;28;20070;-79
2020/12/02 02:29:16;;;;;;;56.95;31.20;;;5.00;99.90;;;;;;5015983;28;20390;-79
2020/12/02 02:31:58;;;;;;;70.03;36.20;;;5.00;99.90;;;;;;5015787;28;20052;-79
2020/12/02 02:34:25;;;;;;;60.42;32.72;;;5.00;99.90;;;;;;5030464;28;20030;-80
2020/12/02 02:36:53;;;;;;;73.32;36.95;;;5.00;99.90;;;;;;5033668;28;20104;-79
2020/12/02 02:39:18;;;;;;;63.75;35.78;;;5.00;99.90;;;;;;5033584;28;20029;-79
2020/12/02 02:41:45;;;;;;;58.80;31.90;;;5.00;99.90;;;;;;5033290;28;20385;-79
2020/12/02 02:44:11;;;;;;;67.45;34.80;;;5.00;99.90;;;;;;5015735;28;20034;-79
2020/12/02 02:46:37;;;;;;;59.78;34.63;;;4.90;99.90;;;;;;5015180;28;20493;-79
2020/12/02 02:49:04;;;;;;;59.97;35.45;;;4.90;99.90;;;;;;5013552;28;20026;-79
2020/12/02 02:51:30;;;;;;;53.78;32.42;;;5.10;99.90;;;;;;4996152;28;20436;-79
2020/12/02 02:53:56;;;;;;;58.30;33.97;;;4.90;99.90;;;;;;5015237;28;20061;-79
2020/12/02 02:56:21;;;;;;;68.32;39.15;;;4.90;99.90;;;;;;5015244;28;20026;-79
2020/12/02 02:58:47;;;;;;;66.90;38.58;;;4.80;99.90;;;;;;5033307;28;20049;-78
2020/12/02 03:01:12;;;;;;;61.75;33.38;;;4.80;99.90;;;;;;5033275;28;20025;-79
2020/12/02 03:03:38;;;;;;;63.85;36.42;;;4.80;99.90;;;;;;5032973;28;20037;-79
2020/12/02 03:06:06;;;;;;;57.42;34.63;;;4.80;99.90;;;;;;4997997;28;20429;-79
2020/12/02 03:08:32;;;;;;;53.75;32.63;;;4.80;99.90;;;;;;5013040;28;20454;-79
2020/12/02 03:11:00;;;;;;;54.63;33.22;;;4.80;99.90;;;;;;5032212;28;20033;-79
2020/12/02 03:13:38;;;;;;;54.40;34.08;;;4.80;99.90;;;;;;5032636;28;20079;-80
2020/12/02 03:16:25;;;;;;;61.75;33.80;;;4.80;99.90;;;;;;5000147;28;20049;-80
2020/12/02 03:18:56;;;;;;;60.97;34.38;;;4.80;99.90;;;;;;5013161;28;20026;-79
2020/12/02 03:21:22;;;;;;;56.95;34.95;;;4.80;99.90;;;;;;5013077;28;20026;-79
2020/12/02 03:23:48;;;;;;;58.55;33.25;;;4.80;99.90;;;;;;5013320;28;20026;-79
2020/12/02 03:26:14;;;;;;;59.15;35.30;;;4.70;99.90;;;;;;5015328;28;20070;-79
2020/12/02 03:28:40;;;;;;;57.38;35.20;;;4.70;99.90;;;;;;5032402;28;20033;-80
2020/12/02 03:31:11;;;;;;;57.25;36.17;;;4.70;99.90;;;;;;5032665;28;20030;-79
2020/12/02 03:33:37;;;;;;;69.35;37.45;;;4.70;99.90;;;;;;5032333;28;20107;-80
2020/12/02 03:36:02;;;;;;;53.17;33.70;;;4.80;99.90;;;;;;4996492;28;20080;-81
2020/12/02 03:38:28;;;;;;;62.92;35.88;;;4.70;99.90;;;;;;5012254;28;20570;-81
2020/12/02 03:40:53;;;;;;;62.22;37.45;;;4.60;99.90;;;;;;5012270;28;20049;-80
2020/12/02 03:43:20;;;;;;;60.40;36.95;;;4.60;99.90;;;;;;4994710;28;20031;-80
2020/12/02 03:45:46;;;;;;;65.03;39.20;;;4.60;99.90;;;;;;5006097;28;20387;-81
2020/12/02 03:48:14;;;;;;;64.18;38.38;;;4.60;99.90;;;;;;5032340;28;20037;-81
2020/12/02 03:50:42;;;;;;;68.82;41.80;;;4.60;99.90;;;;;;5014434;28;20040;-81
2020/12/02 03:53:08;;;;;;;64.82;38.80;;;4.60;99.90;;;;;;5032497;28;20429;-81
2020/12/02 03:55:34;;;;;;;66.22;40.20;;;4.60;99.90;;;;;;4998030;28;20517;-81
2020/12/02 03:58:00;;;;;;;67.00;41.45;;;4.60;99.90;;;;;;5012359;28;20109;-81
2020/12/02 04:00:26;;;;;;;68.47;41.80;;;4.60;99.90;;;;;;5012355;28;20100;-81
2020/12/02 04:02:52;;;;;;;76.57;43.40;;;4.50;99.90;;;;;;4994775;28;20026;-80
2020/12/02 04:05:18;;;;;;;66.25;39.17;;;4.50;99.90;;;;;;5004706;28;20396;-80
2020/12/02 04:07:43;;;;;;;61.25;40.47;;;4.50;99.90;;;;;;5031610;28;20112;-81
2020/12/02 04:10:09;;;;;;;69.88;41.25;;;4.40;99.90;;;;;;5014043;28;20113;-80
2020/12/02 04:12:34;;;;;;;63.10;39.28;;;4.40;99.90;;;;;;5031823;28;20610;-81
2020/12/02 04:15:00;;;;;;;64.00;39.45;;;4.40;99.90;;;;;;5008204;28;20105;-82
2020/12/02 04:17:25;;;;;;;69.95;43.00;;;4.50;99.90;;;;;;4994404;28;20026;-81
2020/12/02 04:19:51;;;;;;;69.82;40.40;;;4.40;99.90;;;;;;5011603;28;20026;-81
2020/12/02 04:22:17;;;;;;;74.85;42.45;;;4.40;99.90;;;;;;4994432;28;20084;-81
2020/12/02 04:24:42;;;;;;;66.45;41.50;;;4.40;99.90;;;;;;5002480;28;20116;-81
2020/12/02 04:27:08;;;;;;;59.03;38.45;;;4.40;99.90;;;;;;5031591;28;20104;-80
2020/12/02 04:29:34;;;;;;;64.05;39.05;;;4.40;99.90;;;;;;5031244;28;20022;-81
2020/12/02 04:31:59;;;;;;;57.35;37.08;;;4.40;99.90;;;;;;5031634;28;20030;-80
2020/12/02 04:34:25;;;;;;;64.75;39.35;;;4.40;99.90;;;;;;5008594;28;20026;-80
2020/12/02 04:36:51;;;;;;;67.75;41.13;;;4.40;99.90;;;;;;4994164;28;20022;-80
2020/12/02 04:39:17;;;;;;;64.18;39.05;;;4.40;99.90;;;;;;5011826;28;20509;-81
2020/12/02 04:41:43;;;;;;;67.80;40.13;;;4.40;99.90;;;;;;4994004;28;20028;-81
2020/12/02 04:44:10;;;;;;;70.55;40.38;;;4.40;99.90;;;;;;4993415;28;20034;-81
2020/12/02 04:46:37;;;;;;;66.90;41.05;;;4.40;99.90;;;;;;5012387;28;20033;-81
2020/12/02 04:49:23;;;;;;;61.85;38.45;;;4.40;99.90;;;;;;5031259;28;20041;-81
2020/12/02 04:51:51;;;;;;;58.90;36.67;;;4.40;99.90;;;;;;5031177;28;20109;-81
2020/12/02 04:54:17;;;;;;;63.53;40.38;;;4.50;99.90;;;;;;5007792;28;20409;-81
2020/12/02 04:56:46;;;;;;;64.13;39.28;;;4.40;99.90;;;;;;5011634;28;20026;-80
2020/12/02 04:59:12;;;;;;;64.05;39.17;;;4.40;99.90;;;;;;4993790;28;20025;-81
2020/12/02 05:01:55;;;;;;;62.92;39.42;;;4.50;99.90;;;;;;5011446;28;20022;-81
2020/12/02 05:04:26;;;;;;;65.45;39.80;;;4.40;99.90;;;;;;5013607;28;20056;-80
2020/12/02 05:07:14;;;;;;;67.68;41.85;;;4.40;99.90;;;;;;5030491;28;20037;-81
2020/12/02 05:09:58;;;;;;;75.18;43.95;;;4.40;99.90;;;;;;5030582;28;20037;-81
2020/12/02 05:12:37;;;;;;;65.88;41.55;;;4.40;99.90;;;;;;5030970;28;20504;-81
2020/12/02 05:15:27;;;;;;;70.70;42.22;;;4.40;99.90;;;;;;5024749;28;20026;-80
2020/12/02 05:18:11;;;;;;;71.05;41.47;;;4.30;99.90;;;;;;5011037;28;20100;-81
2020/12/02 05:20:36;;;;;;;;;;;4.40;99.90;;;;;;5011453;28;20109;-80
2020/12/02 05:23:17;;;;;;;67.50;41.75;;;4.40;99.90;;;;;;4993412;28;20003;-81
2020/12/02 05:25:43;;;;;;;63.58;39.80;;;4.30;99.90;;;;;;5027493;28;20040;-80
2020/12/02 05:28:24;;;;;;;69.53;40.92;;;4.40;99.90;;;;;;5030411;28;20569;-80
2020/12/02 05:31:09;;;;;;;70.00;41.60;;;4.40;99.90;;;;;;5030623;28;20068;-80
2020/12/02 05:33:35;;;;;;;65.65;38.78;;;4.40;99.90;;;;;;5012699;28;20474;-80
2020/12/02 05:36:16;;;;;;;65.50;39.90;;;4.40;99.90;;;;;;4997352;28;20117;-80
2020/12/02 05:39:04;;;;;;;71.63;38.95;;;4.50;99.90;;;;;;4993191;28;20385;-80
2020/12/02 05:41:31;;;;;;;62.55;36.42;;;4.40;99.90;;;;;;5010881;28;20026;-80
2020/12/02 05:44:06;;;;;;;60.30;36.78;;;4.40;99.90;;;;;;5010650;28;20397;-80
2020/12/02 05:46:32;;;;;;;60.55;35.90;;;4.40;99.90;;;;;;5030165;28;20035;-80
2020/12/02 05:49:04;;;;;;;64.60;38.50;;;4.40;99.90;;;;;;5034555;28;20108;-80
2020/12/02 05:51:30;;;;;;;64.97;39.15;;;4.40;99.90;;;;;;5034285;28;20093;-80
2020/12/02 05:54:02;;;;;;;67.28;41.25;;;4.40;99.90;;;;;;5013842;28;20383;-80
2020/12/02 05:56:27;;;;;;;63.13;38.90;;;4.40;99.90;;;;;;4997130;28;20111;-80
2020/12/02 05:58:53;;;;;;;65.32;40.17;;;4.40;99.90;;;;;;4997001;28;20439;-80
2020/12/02 06:01:21;;;;;;;67.65;36.38;;;4.40;99.90;;;;;;4996997;28;20105;-81
2020/12/02 06:03:52;;;;;;;58.17;36.15;;;4.40;99.90;;;;;;5014054;28;20452;-81
2020/12/02 06:06:18;;;;;;;59.53;36.53;;;4.40;99.90;;;;;;5015431;28;20026;-80
2020/12/02 06:08:50;;;;;;;60.75;36.08;;;4.40;99.90;;;;;;5033688;28;20079;-80
2020/12/02 06:11:15;;;;;;;69.10;40.42;;;4.30;99.90;;;;;;5016435;28;20056;-80
2020/12/02 06:13:49;;;;;;;62.45;39.33;;;4.30;99.90;;;;;;5016256;28;20025;-80
2020/12/02 06:16:24;;;;;;;;;;;4.30;99.90;;;;;;5018298;28;20030;-80
2020/12/02 06:18:49;;;;;;;;;;;4.30;99.90;;;;;;4996934;28;19968;-80
2020/12/02 06:21:40;;;;;;;63.95;38.65;;;4.30;99.90;;;;;;4996688;28;19916;-80
2020/12/02 06:24:06;;;;;;;60.05;34.33;;;4.30;99.90;;;;;;5017131;28;20381;-80
2020/12/02 06:26:52;;;;;;;64.90;38.92;;;4.30;99.90;;;;;;5034020;28;20040;-80
2020/12/02 06:29:29;;;;;;;67.82;38.70;;;4.40;99.90;;;;;;5015637;28;20029;-80
2020/12/02 06:32:20;;;;;;;63.65;37.80;;;4.40;99.90;;;;;;5016040;28;20026;-80
2020/12/02 06:34:48;;;;;;;66.68;38.03;;;4.30;99.90;;;;;;5026649;28;20034;-80
2020/12/02 06:37:23;;;;;;;63.58;38.42;;;4.40;99.90;;;;;;4996373;28;20022;-80
2020/12/02 06:39:56;;;;;;;62.60;37.53;;;4.30;99.90;;;;;;5013875;28;20072;-80
2020/12/02 06:42:36;;;;;;;67.18;37.72;;;4.30;99.90;;;;;;4995908;28;20030;-80
2020/12/02 06:45:10;;;;;;;63.35;37.80;;;4.30;99.90;;;;;;5001189;28;20108;-80
2020/12/02 06:47:50;;;;;;;57.85;35.35;;;4.30;99.90;;;;;;5033595;28;20033;-80
2020/12/02 06:50:27;;;;;;;70.55;37.53;;;4.30;99.90;;;;;;5015633;28;20461;-80
2020/12/02 06:52:56;;;;;;;68.25;39.65;;;4.30;99.90;;;;;;5015468;28;20034;-80
2020/12/02 06:55:27;;;;;;;67.00;38.17;;;4.30;99.90;;;;;;5001610;28;20033;-80
2020/12/02 06:58:17;;;;;;;62.58;37.15;;;4.30;99.90;;;;;;5012569;28;20092;-80
2020/12/02 07:00:45;;;;;;;62.85;36.38;;;4.30;99.90;;;;;;4988163;28;20169;-80
2020/12/02 07:03:21;;;;;;;61.97;36.38;;;4.30;99.90;;;;;;5013740;28;20057;-80
2020/12/02 07:05:48;;;;;;;62.50;36.50;;;4.30;99.90;;;;;;5027133;28;20029;-80
2020/12/02 07:08:30;;;;;;;58.58;35.88;;;4.30;99.90;;;;;;5015414;28;20029;-80
2020/12/02 07:11:01;;;;;;;58.47;34.83;;;4.30;99.90;;;;;;5032683;28;20046;-80
2020/12/02 07:13:29;;;;;;;61.15;37.03;;;4.30;99.90;;;;;;5033203;28;20026;-80
2020/12/02 07:15:55;;;;;;;61.15;36.80;;;4.30;99.90;;;;;;5020321;28;20034;-80
2020/12/02 07:18:23;;;;;;;64.65;37.15;;;4.30;99.90;;;;;;5012972;28;20441;-81
2020/12/02 07:21:02;;;;;;;67.03;39.15;;;4.30;99.90;;;;;;5013202;28;20030;-80
2020/12/02 07:23:32;;;;;;;60.78;37.30;;;4.20;99.90;;;;;;5013232;28;20026;-80
2020/12/02 07:25:57;;;;;;;64.15;36.58;;;4.20;99.90;;;;;;5013244;28;20033;-80
2020/12/02 07:28:23;;;;;;;68.10;39.40;;;4.20;99.90;;;;;;5032413;28;20420;-80
2020/12/02 07:30:49;;;;;;;63.85;37.38;;;4.20;99.90;;;;;;5032621;28;20468;-80
2020/12/02 07:33:19;;;;;;;63.53;34.88;;;4.40;99.90;;;;;;5014838;28;20119;-80
2020/12/02 07:35:45;;;;;;;68.35;37.25;;;4.30;99.90;;;;;;5017929;28;20029;-80
2020/12/02 07:38:14;;;;;;;64.82;37.70;;;4.20;99.90;;;;;;5012885;28;20048;-80
2020/12/02 07:40:40;;;;;;;62.35;36.33;;;4.20;99.90;;;;;;4994704;28;20037;-80
2020/12/02 07:43:23;;;;;;;56.97;34.22;;;4.20;99.90;;;;;;5012674;28;20026;-80
2020/12/02 07:45:49;;;;;;;60.72;36.00;;;4.20;99.90;;;;;;5023790;28;20033;-80
2020/12/02 07:48:23;;;;;;;65.70;37.05;;;4.20;99.90;;;;;;5032170;28;20040;-81
2020/12/02 07:50:56;;;;;;;64.72;36.85;;;4.30;99.90;;;;;;5032000;28;20105;-80
2020/12/02 07:53:43;;;;;;;60.50;35.95;;;4.30;99.90;;;;;;5014515;28;20069;-80
2020/12/02 07:56:34;;;;;;;59.83;34.28;;;4.30;99.90;;;;;;5012127;28;20029;-80
2020/12/02 07:59:20;;;;;;;63.33;36.28;;;4.30;99.90;;;;;;4994087;28;20026;-80
2020/12/02 08:02:09;;;;;;;64.25;37.13;;;4.30;99.90;;;;;;5012399;28;20025;-80
2020/12/02 08:04:47;;;;;;;69.55;39.85;;;4.20;99.90;;;;;;5016380;28;20048;-80
2020/12/02 08:07:14;;;;;;;67.07;37.72;;;4.30;99.90;;;;;;5014303;28;20025;-80
2020/12/02 08:09:51;;;;;;;65.28;38.88;;;4.30;99.90;;;;;;5031372;28;20485;-80
2020/12/02 08:12:26;;;;;;;67.88;39.03;;;4.30;99.90;;;;;;5032001;28;20025;-80
2020/12/02 08:15:06;;;;;;;65.75;38.75;;;4.30;99.90;;;;;;5027627;28;20061;-80
2020/12/02 08:17:33;;;;;;;65.20;38.53;;;4.30;99.90;;;;;;4994146;28;20026;-80
2020/12/02 08:20:01;;;;;;;66.10;38.58;;;4.30;99.90;;;;;;5012019;28;20536;-80
2020/12/02 08:22:30;;;;;;;67.10;39.50;;;4.30;99.90;;;;;;5011886;28;20025;-80
2020/12/02 08:25:16;;;;;;;75.22;42.60;;;4.30;99.90;;;;;;5003722;28;20493;-80
2020/12/02 08:27:46;;;;;;;74.97;42.95;;;4.20;99.90;;;;;;5000616;28;20125;-80
2020/12/02 08:30:18;;;;;;;77.95;43.67;;;4.30;99.90;;;;;;5013533;28;20440;-80
2020/12/02 08:32:54;;;;;;;68.97;40.35;;;4.20;99.90;;;;;;5014100;28;20029;-81
2020/12/02 08:35:25;;;;;;;76.60;41.22;;;4.30;99.90;;;;;;5003587;28;20497;-80
2020/12/02 08:37:54;;;;;;;70.72;38.25;;;4.30;99.90;;;;;;5011870;28;20032;-80
2020/12/02 08:40:22;;;;;;;67.38;37.90;;;4.30;99.90;;;;;;5011633;28;20022;-80
2020/12/02 08:42:48;;;;;;;67.20;37.92;;;4.30;99.90;;;;;;5011623;28;20064;-80
2020/12/02 08:45:15;;;;;;;62.78;37.92;;;4.30;99.90;;;;;;5017401;28;20484;-80
2020/12/02 08:47:41;;;;;;;70.68;38.72;;;4.40;99.90;;;;;;5031269;28;20021;-80
2020/12/02 08:50:19;;;;;;;66.45;37.83;;;4.40;99.90;;;;;;5031285;28;20025;-80
2020/12/02 08:52:53;;;;;;;69.57;39.00;;;4.40;99.90;;;;;;5030924;28;20025;-80
2020/12/02 08:55:19;;;;;;;68.45;38.83;;;4.40;99.90;;;;;;5027776;28;20026;-79
2020/12/02 08:57:45;;;;;;;60.60;37.33;;;4.50;99.90;;;;;;5012988;28;20034;-80
2020/12/02 09:00:14;;;;;;;60.13;33.35;;;4.50;99.90;;;;;;5013004;28;20114;-79
2020/12/02 09:02:39;;;;;;;46.13;28.20;;;4.50;99.90;;;;;;5013421;28;20026;-80
2020/12/02 09:05:05;;;;;;;44.30;26.05;;;4.40;99.90;;;;;;5004614;28;20029;-79
2020/12/02 09:07:30;;;;;;;43.67;25.73;;;4.40;99.90;;;;;;5011330;28;20604;-80
2020/12/02 09:09:56;;;;;;;51.75;28.58;;;4.40;99.90;;;;;;5020286;28;20049;-80
2020/12/02 09:12:21;;;;;;;42.72;25.48;;;4.50;99.90;;;;;;5013139;28;20037;-80
2020/12/02 09:14:47;;;;;;;45.15;25.55;;;4.50;99.90;;;;;;5027411;28;20069;-79
2020/12/02 09:17:12;;;;;;;44.13;26.58;;;4.50;99.90;;;;;;4993576;28;20026;-79
2020/12/02 09:19:38;;;;;;;44.85;25.60;;;4.50;99.90;;;;;;5010816;28;20386;-79
2020/12/02 09:22:03;;;;;;;48.50;28.13;;;4.60;99.90;;;;;;5010993;28;20088;-79
2020/12/02 09:24:29;;;;;;;45.67;26.88;;;4.50;99.90;;;;;;4999340;28;20030;-79
2020/12/02 09:26:54;;;;;;;46.13;27.48;;;4.50;99.90;;;;;;5030391;28;20033;-79
2020/12/02 09:29:19;;;;;;;47.92;28.20;;;4.60;99.90;;;;;;5030307;28;20048;-79
2020/12/02 09:31:45;;;;;;;49.22;29.20;;;4.60;99.90;;;;;;5021775;28;20057;-79
2020/12/02 09:34:11;;;;;;;59.50;31.00;;;4.60;99.90;;;;;;5010795;28;20076;-79
2020/12/02 09:36:36;;;;;;;59.78;30.30;;;4.50;99.90;;;;;;4993408;28;20040;-79
2020/12/02 09:39:04;;;;;;;74.32;37.95;;;4.40;99.90;;;;;;4995368;28;20398;-79
2020/12/02 09:41:51;;;;;;;79.68;40.97;;;4.40;99.90;;;;;;5012800;28;20481;-80
2020/12/02 09:44:30;;;;;;;97.03;45.00;;;4.30;99.90;;;;;;5012407;28;20551;-79
2020/12/02 09:47:00;;;;;;;92.88;43.70;;;4.30;99.90;;;;;;5013271;28;20034;-80
2020/12/02 09:49:26;;;;;;;86.05;43.40;;;4.30;99.90;;;;;;5009724;28;20449;-80
2020/12/02 09:52:04;;;;;;;95.65;43.75;;;4.30;99.90;;;;;;5010641;28;20080;-79
2020/12/02 09:54:39;;;;;;;99.25;45.58;;;4.30;99.90;;;;;;4992935;28;20109;-79
2020/12/02 09:57:26;;;;;;;95.45;46.30;;;4.30;99.90;;;;;;5011115;28;20026;-79
2020/12/02 09:59:57;;;;;;;99.75;46.50;;;4.30;99.90;;;;;;4996323;28;20075;-79
2020/12/02 10:03:05;;;;;;;98.22;45.58;;;4.30;99.90;;;;;;5030151;28;20033;-79
2020/12/02 10:05:51;;;;;;;104.22;49.30;;;4.30;99.90;;;;;;5030131;28;20028;-79
2020/12/02 10:09:01;;;;;;;105.15;48.22;;;4.30;99.90;;;;;;5012732;28;20052;-79
2020/12/02 10:11:57;;;;;;;106.13;50.03;;;4.30;99.90;;;;;;5009119;28;20049;-79
2020/12/02 10:14:51;;;;;;;106.25;51.70;;;4.30;99.90;;;;;;5028511;28;20132;-79
2020/12/02 10:17:36;;;;;;;94.28;46.85;;;4.30;99.90;;;;;;5028763;28;20017;-78
2020/12/02 10:20:18;;;;;;;103.20;50.17;;;4.30;99.90;;;;;;5022928;28;20112;-80
2020/12/02 10:23:14;;;;;;;102.97;51.38;;;4.40;99.90;;;;;;5011943;28;20026;-79
2020/12/02 10:25:56;;;;;;;104.60;50.60;;;4.40;99.90;;;;;;5029277;28;20036;-79
2020/12/02 10:28:29;;;;;;;108.53;52.58;;;4.30;99.90;;;;;;5029995;28;20511;-80
2020/12/02 10:31:06;;;;;;;104.30;51.83;;;4.40;99.90;;;;;;5000239;28;20030;-79
2020/12/02 10:33:57;;;;;;;116.75;54.13;;;4.40;99.90;;;;;;5012431;28;20470;-80
2020/12/02 10:36:27;;;;;;;102.85;50.50;;;4.40;99.90;;;;;;5022036;28;20359;-80
2020/12/02 10:38:58;;;;;;;105.70;53.47;;;4.40;99.90;;;;;;5031790;28;20021;-79
2020/12/02 10:41:49;;;;;;;103.55;55.13;;;4.40;99.90;;;;;;5030232;28;20032;-80
2020/12/02 10:44:40;;;;;;;112.05;54.08;;;4.40;99.90;;;;;;5052981;28;20059;-80
2020/12/02 10:47:16;;;;;;;112.97;54.15;;;4.30;99.90;;;;;;5034775;28;20420;-79
2020/12/02 10:49:45;;;;;;;99.32;51.60;;;4.30;99.90;;;;;;5043256;28;20029;-79
2020/12/02 10:52:13;;;;;;;106.10;53.25;;;4.40;99.90;;;;;;5022482;28;20025;-80
2020/12/02 10:54:39;;;;;;;100.68;51.28;;;4.40;99.90;;;;;;5032810;28;20107;-79
2020/12/02 10:57:38;;;;;;;104.65;54.20;;;4.40;99.90;;;;;;5016752;28;20029;-80
2020/12/02 11:00:06;;;;;;;109.80;56.20;;;4.40;99.90;;;;;;4970117;28;20418;-81
2020/12/02 11:02:32;;;;;;;105.72;54.42;;;4.40;99.90;;;;;;5027308;28;20034;-79
2020/12/02 11:05:00;;;;;;;114.65;55.42;;;4.30;99.90;;;;;;5046588;28;20028;-79
2020/12/02 11:07:47;;;;;;;110.40;53.95;;;4.30;99.90;;;;;;5030778;28;20041;-80
2020/12/02 11:11:05;;;;;;;101.03;52.20;;;4.30;99.90;;;;;;5012615;28;20533;-80
2020/12/02 11:13:48;;;;;;;102.95;53.40;;;4.30;99.90;;;;;;4986555;28;20042;-79
2020/12/02 11:16:50;;;;;;;103.13;50.72;;;4.30;99.90;;;;;;5027453;28;20033;-79
2020/12/02 11:19:39;;;;;;;107.80;53.58;;;4.30;99.90;;;;;;4982795;28;20041;-79
2020/12/02 11:22:51;;;;;;;105.18;52.63;;;4.30;99.90;;;;;;5032949;28;20075;-79
2020/12/02 11:25:27;;;;;;;113.70;54.58;;;4.20;99.90;;;;;;5004811;28;20065;-79
2020/12/02 11:27:54;;;;;;;98.68;50.72;;;4.20;99.90;;;;;;5032636;28;20025;-79
2020/12/02 11:30:28;;;;;;;97.72;51.42;;;4.20;99.90;;;;;;5014912;28;20029;-79
2020/12/02 11:33:14;;;;;;;102.80;52.05;;;4.20;99.90;;;;;;5032801;28;20120;-79
2020/12/02 11:36:27;;;;;;;108.50;53.58;;;4.30;99.90;;;;;;5011586;28;20382;-79
2020/12/02 11:39:13;;;;;;;103.05;52.72;;;4.30;99.90;;;;;;4989474;28;20040;-79
2020/12/02 11:41:52;;;;;;;97.65;49.90;;;4.30;99.90;;;;;;5012810;28;20022;-80
2020/12/02 11:44:47;;;;;;;106.15;52.50;;;4.30;99.90;;;;;;5009811;28;20497;-79
2020/12/02 11:47:37;;;;;;;103.63;51.63;;;4.30;99.90;;;;;;5014427;28;20032;-79
2020/12/02 11:50:27;;;;;;;109.30;50.13;;;4.20;99.90;;;;;;5032081;28;20056;-79
2020/12/02 11:52:58;;;;;;;110.07;52.03;;;4.20;99.90;;;;;;5013181;28;20034;-80
2020/12/02 11:55:24;;;;;;;103.95;51.95;;;4.20;99.90;;;;;;4994746;28;20117;-79
2020/12/02 11:57:54;;;;;;;101.63;50.25;;;4.20;99.90;;;;;;5012158;28;20118;-79
2020/12/02 12:00:19;;;;;;;102.78;51.40;;;4.20;99.90;;;;;;5012280;28;20065;-80
2020/12/02 12:03:15;;;;;;;97.90;52.28;;;4.20;99.90;;;;;;4994758;28;20057;-79
2020/12/02 12:06:07;;;;;;;97.47;50.58;;;4.20;99.90;;;;;;5005274;28;20405;-79
2020/12/02 12:08:54;;;;;;;109.88;49.92;;;4.20;99.90;;;;;;4994532;28;20022;-79
2020/12/02 12:11:31;;;;;;;98.07;50.75;;;4.20;99.90;;;;;;5012295;28;20022;-79
2020/12/02 12:14:19;;;;;;;111.07;52.28;;;4.20;99.90;;;;;;5006971;28;20064;-79
2020/12/02 12:17:06;;;;;;;105.57;50.83;;;4.20;99.90;;;;;;5031965;28;20021;-79
2020/12/02 12:19:45;;;;;;;89.63;48.97;;;4.20;99.90;;;;;;5014182;28;20018;-79
2020/12/02 12:22:48;;;;;;;95.57;50.22;;;4.20;99.90;;;;;;5032107;28;20017;-78
2020/12/02 12:25:24;;;;;;;94.70;48.60;;;4.20;99.90;;;;;;5012152;28;20029;-79
2020/12/02 12:27:56;;;;;;;96.55;50.45;;;4.20;99.90;;;;;;5031751;28;20110;-79
2020/12/02 12:30:21;;;;;;;90.32;47.03;;;4.20;99.90;;;;;;5031761;28;20021;-79
2020/12/02 12:33:01;;;;;;;91.82;47.40;;;4.20;99.90;;;;;;5031447;28;20032;-79
2020/12/02 12:35:31;;;;;;;87.00;48.17;;;4.10;99.90;;;;;;5012530;28;20037;-78
2020/12/02 12:38:15;;;;;;;98.95;49.22;;;4.10;99.90;;;;;;5011820;28;20026;-79
2020/12/02 12:40:46;;;;;;;95.50;49.30;;;4.10;99.90;;;;;;5011620;28;20108;-79
2020/12/02 12:43:16;;;;;;;95.13;47.55;;;4.10;99.90;;;;;;5017900;28;20563;-80
2020/12/02 12:45:45;;;;;;;97.68;50.30;;;4.10;99.90;;;;;;5013237;28;20388;-79
2020/12/02 12:48:18;;;;;;;100.40;50.40;;;4.00;99.90;;;;;;5031046;28;20072;-80
2020/12/02 12:50:46;;;;;;;95.88;50.20;;;4.10;99.90;;;;;;5031151;28;20444;-79
2020/12/02 12:53:14;;;;;;;90.47;48.50;;;4.00;99.90;;;;;;5027292;28;20034;-79
2020/12/02 12:55:39;;;;;;;96.00;49.15;;;4.00;99.90;;;;;;5010770;28;20601;-80
2020/12/02 12:58:11;;;;;;;87.47;47.40;;;4.00;99.90;;;;;;5011127;28;20030;-79
2020/12/02 13:00:49;;;;;;;88.97;49.75;;;4.00;99.90;;;;;;5011381;28;20014;-79
2020/12/02 13:03:21;;;;;;;91.05;47.85;;;4.00;99.90;;;;;;5012029;28;20117;-79
2020/12/02 13:06:00;;;;;;;90.30;46.70;;;4.00;99.90;;;;;;5013045;28;20029;-80